createdAt,value
2024-04-18T00:00:00.325Z,0
2024-04-18T00:10:00.316Z,0
2024-04-18T00:20:00.251Z,0
2024-04-18T00:30:00.239Z,0
2024-04-18T00:40:00.319Z,0
2024-04-18T00:50:00.258Z,0
2024-04-18T01:00:00.359Z,0
2024-04-18T01:10:00.322Z,0
2024-04-18T01:20:00.184Z,0
2024-04-18T01:30:00.307Z,0
2024-04-18T01:40:00.252Z,0
2024-04-18T01:50:00.310Z,0
2024-04-18T02:00:00.311Z,0
2024-04-18T02:10:00.302Z,0
2024-04-18T02:20:00.218Z,0
2024-04-18T02:30:00.282Z,0
2024-04-18T02:40:00.202Z,0
2024-04-18T02:50:00.261Z,0
2024-04-18T03:00:00.327Z,0
2024-04-18T03:10:00.208Z,0
2024-04-18T03:20:00.385Z,0
2024-04-18T03:30:00.277Z,0
2024-04-18T03:40:00.245Z,0
2024-04-18T03:50:00.267Z,0
2024-04-18T04:00:00.247Z,0
2024-04-18T04:10:00.218Z,0
2024-04-18T04:20:00.337Z,0
2024-04-18T04:30:00.272Z,0
2024-04-18T04:40:00.314Z,0
2024-04-18T04:50:00.350Z,0
2024-04-18T05:00:00.300Z,0
2024-04-18T05:10:00.322Z,0
2024-04-18T05:20:00.192Z,0
2024-04-18T05:30:00.251Z,0
2024-04-18T05:40:00.363Z,0
2024-04-18T05:50:00.216Z,0
2024-04-18T06:00:00.313Z,0
2024-04-18T06:10:00.228Z,0
2024-04-18T06:20:00.302Z,0
2024-04-18T06:30:00.296Z,0
2024-04-18T06:40:00.344Z,0
2024-04-18T06:50:00.300Z,0
2024-04-18T07:00:00.207Z,0
2024-04-18T07:10:00.331Z,1
2024-04-18T07:20:00.253Z,1
2024-04-18T07:30:00.201Z,2
2024-04-18T07:40:00.301Z,2
2024-04-18T07:50:00.247Z,2
2024-04-18T08:00:01.433Z,3
2024-04-18T08:10:03.945Z,3
2024-04-18T08:20:00.218Z,3
2024-04-18T08:30:00.321Z,4
2024-04-18T08:40:00.213Z,1
2024-04-18T08:50:00.290Z,5
2024-04-18T09:00:00.424Z,5
2024-04-18T09:10:00.248Z,5
2024-04-18T09:20:00.291Z,6
2024-04-18T09:30:00.303Z,3
2024-04-18T09:40:00.249Z,2
2024-04-18T09:50:00.294Z,6
2024-04-18T10:00:00.358Z,6
2024-04-18T10:10:00.315Z,2
2024-04-18T10:20:00.231Z,1
2024-04-18T10:30:00.602Z,7
2024-04-18T10:40:00.218Z,2
2024-04-18T10:50:00.259Z,2
2024-04-18T11:00:00.599Z,2
2024-04-18T11:10:00.238Z,4
2024-04-18T11:20:00.264Z,6
2024-04-18T11:30:00.228Z,0
2024-04-18T11:40:00.308Z,1
2024-04-18T11:50:00.308Z,2
2024-04-18T12:00:00.225Z,2
2024-04-18T12:10:00.240Z,5
2024-04-18T12:20:00.224Z,1
2024-04-18T12:30:00.281Z,1
2024-04-18T12:40:00.305Z,1
2024-04-18T12:50:00.304Z,6
2024-04-18T13:00:00.184Z,1
2024-04-18T13:10:00.300Z,1
2024-04-18T13:20:00.359Z,1
2024-04-18T13:30:00.274Z,2
2024-04-18T13:40:00.194Z,2
2024-04-18T13:50:00.254Z,2
2024-04-18T14:00:00.199Z,2
2024-04-18T14:10:00.255Z,2
2024-04-18T14:20:00.299Z,2
2024-04-18T14:30:00.222Z,1
2024-04-18T14:40:00.255Z,1
2024-04-18T14:50:03.293Z,1
2024-04-18T15:00:00.265Z,0
2024-04-18T15:10:00.248Z,1
2024-04-18T15:20:00.227Z,1
2024-04-18T15:30:00.227Z,1
2024-04-18T15:40:00.355Z,1
2024-04-18T15:50:00.202Z,1
2024-04-18T16:00:00.260Z,0
2024-04-18T16:10:00.271Z,0
2024-04-18T16:20:00.229Z,0
2024-04-18T16:30:00.337Z,0
2024-04-18T16:40:00.211Z,0
2024-04-18T16:50:00.313Z,0
2024-04-18T17:00:00.286Z,0
2024-04-18T17:10:00.209Z,0
2024-04-18T17:20:00.231Z,0
2024-04-18T17:30:00.236Z,0
2024-04-18T17:40:00.236Z,0
2024-04-18T17:50:00.319Z,0
2024-04-18T18:00:00.338Z,0
2024-04-18T18:10:00.351Z,0
2024-04-18T18:20:00.336Z,0
2024-04-18T18:30:00.249Z,0
2024-04-18T18:40:00.361Z,0
2024-04-18T18:50:00.305Z,0
2024-04-18T19:00:00.348Z,0
2024-04-18T19:10:00.266Z,0
2024-04-18T19:20:00.382Z,0
2024-04-18T19:30:00.357Z,0
2024-04-18T19:40:00.269Z,0
2024-04-18T19:50:00.242Z,0
2024-04-18T20:00:00.300Z,0
2024-04-18T20:10:00.343Z,0
2024-04-18T20:20:00.222Z,0
2024-04-18T20:30:00.344Z,0
2024-04-18T20:40:00.384Z,0
2024-04-18T20:50:00.301Z,0
2024-04-18T21:00:00.264Z,0
2024-04-18T21:10:00.393Z,0
2024-04-18T21:20:00.377Z,0
2024-04-18T21:30:00.311Z,0
2024-04-18T21:40:00.395Z,0
2024-04-18T21:50:00.272Z,0
2024-04-18T22:00:00.336Z,0
2024-04-18T22:10:00.304Z,0
2024-04-18T22:20:00.335Z,0
2024-04-18T22:30:00.373Z,0
2024-04-18T22:40:00.490Z,0
2024-04-18T22:50:00.341Z,0
2024-04-18T23:00:00.378Z,0
2024-04-18T23:10:00.349Z,0
2024-04-18T23:20:00.341Z,0
2024-04-18T23:30:00.439Z,0
2024-04-18T23:40:00.400Z,0
2024-04-18T23:50:00.290Z,0
